sensor_id;sensor_type;location;lat;lon;timestamp;pressure;altitude;pressure_sealevel;temperature;humidity
76321;BME280;65132;52.088;5.402;2023-09-08T00:00:10;101724.59;;;17.54;100.00
76321;BME280;65132;52.088;5.402;2023-09-08T00:02:44;101722.03;;;17.53;100.00
76321;BME280;65132;52.088;5.402;2023-09-08T00:05:25;101716.41;;;17.54;100.00
76321;BME280;65132;52.088;5.402;2023-09-08T00:07:55;101715.53;;;17.46;100.00
76321;BME280;65132;52.088;5.402;2023-09-08T00:10:22;101724.69;;;17.29;100.00
76321;BME280;65132;52.088;5.402;2023-09-08T00:12:57;101716.44;;;17.13;100.00
76321;BME280;65132;52.088;5.402;2023-09-08T00:15:36;101716.00;;;17.00;100.00
76321;BME280;65132;52.088;5.402;2023-09-08T00:18:04;101710.72;;;16.98;100.00
76321;BME280;65132;52.088;5.402;2023-09-08T00:20:44;101716.31;;;16.89;100.00
76321;BME280;65132;52.088;5.402;2023-09-08T00:23:21;101720.56;;;16.83;100.00
76321;BME280;65132;52.088;5.402;2023-09-08T00:25:49;101715.72;;;16.77;100.00
76321;BME280;65132;52.088;5.402;2023-09-08T00:28:24;101715.53;;;16.70;100.00
76321;BME280;65132;52.088;5.402;2023-09-08T00:30:51;101725.09;;;16.66;100.00
76321;BME280;65132;52.088;5.402;2023-09-08T00:33:18;101715.50;;;16.62;100.00
76321;BME280;65132;52.088;5.402;2023-09-08T00:35:53;101723.94;;;16.77;100.00
76321;BME280;65132;52.088;5.402;2023-09-08T00:38:21;101719.16;;;16.79;100.00
76321;BME280;65132;52.088;5.402;2023-09-08T00:40:50;101727.56;;;16.86;100.00
76321;BME280;65132;52.088;5.402;2023-09-08T00:43:19;101724.47;;;16.81;100.00
76321;BME280;65132;52.088;5.402;2023-09-08T00:45:49;101714.53;;;16.71;100.00
76321;BME280;65132;52.088;5.402;2023-09-08T00:48:18;101722.56;;;16.73;100.00
76321;BME280;65132;52.088;5.402;2023-09-08T00:50:50;101719.47;;;16.68;100.00
76321;BME280;65132;52.088;5.402;2023-09-08T00:53:21;101724.72;;;16.61;100.00
76321;BME280;65132;52.088;5.402;2023-09-08T00:55:52;101723.16;;;16.59;100.00
76321;BME280;65132;52.088;5.402;2023-09-08T00:58:20;101723.47;;;16.56;100.00
76321;BME280;65132;52.088;5.402;2023-09-08T01:00:55;101721.44;;;16.58;100.00
76321;BME280;65132;52.088;5.402;2023-09-08T01:03:31;101712.97;;;16.69;100.00
76321;BME280;65132;52.088;5.402;2023-09-08T01:05:58;101711.78;;;16.71;100.00
76321;BME280;65132;52.088;5.402;2023-09-08T01:08:26;101709.06;;;16.71;100.00
76321;BME280;65132;52.088;5.402;2023-09-08T01:10:59;101709.69;;;16.65;100.00
76321;BME280;65132;52.088;5.402;2023-09-08T01:13:26;101708.53;;;16.68;100.00
76321;BME280;65132;52.088;5.402;2023-09-08T01:15:59;101700.78;;;16.63;100.00
76321;BME280;65132;52.088;5.402;2023-09-08T01:18:30;101713.06;;;16.51;100.00
76321;BME280;65132;52.088;5.402;2023-09-08T01:27:06;101709.66;;;16.40;100.00
76321;BME280;65132;52.088;5.402;2023-09-08T01:29:40;101717.88;;;16.40;100.00
76321;BME280;65132;52.088;5.402;2023-09-08T01:32:09;101714.44;;;16.38;100.00
76321;BME280;65132;52.088;5.402;2023-09-08T01:34:42;101715.25;;;16.30;100.00
76321;BME280;65132;52.088;5.402;2023-09-08T01:37:09;101707.22;;;16.29;100.00
76321;BME280;65132;52.088;5.402;2023-09-08T01:39:45;101709.94;;;16.29;100.00
76321;BME280;65132;52.088;5.402;2023-09-08T01:42:12;101707.06;;;16.30;100.00
76321;BME280;65132;52.088;5.402;2023-09-08T01:44:38;101713.06;;;16.34;100.00
76321;BME280;65132;52.088;5.402;2023-09-08T01:47:05;101714.44;;;16.38;100.00
76321;BME280;65132;52.088;5.402;2023-09-08T01:49:33;101704.38;;;16.38;100.00
76321;BME280;65132;52.088;5.402;2023-09-08T01:52:00;101710.00;;;16.37;100.00
76321;BME280;65132;52.088;5.402;2023-09-08T01:54:30;101706.47;;;16.44;100.00
76321;BME280;65132;52.088;5.402;2023-09-08T01:56:59;101714.53;;;16.46;100.00
76321;BME280;65132;52.088;5.402;2023-09-08T01:59:25;101712.56;;;16.38;100.00
76321;BME280;65132;52.088;5.402;2023-09-08T02:01:55;101713.94;;;16.34;100.00
76321;BME280;65132;52.088;5.402;2023-09-08T02:04:24;101709.63;;;16.32;100.00
76321;BME280;65132;52.088;5.402;2023-09-08T02:06:52;101710.78;;;16.29;100.00
76321;BME280;65132;52.088;5.402;2023-09-08T02:09:18;101712.31;;;16.24;100.00
76321;BME280;65132;52.088;5.402;2023-09-08T02:11:50;101709.38;;;16.17;100.00
76321;BME280;65132;52.088;5.402;2023-09-08T02:14:16;101715.78;;;16.08;100.00
76321;BME280;65132;52.088;5.402;2023-09-08T02:16:48;101711.78;;;16.03;100.00
76321;BME280;65132;52.088;5.402;2023-09-08T02:19:14;101706.09;;;15.96;100.00
76321;BME280;65132;52.088;5.402;2023-09-08T02:21:41;101698.94;;;15.95;100.00
76321;BME280;65132;52.088;5.402;2023-09-08T02:24:07;101705.66;;;15.83;100.00
76321;BME280;65132;52.088;5.402;2023-09-08T02:26:38;101698.06;;;15.95;100.00
76321;BME280;65132;52.088;5.402;2023-09-08T02:29:06;101692.50;;;16.04;100.00
76321;BME280;65132;52.088;5.402;2023-09-08T02:31:33;101691.69;;;16.04;100.00
76321;BME280;65132;52.088;5.402;2023-09-08T02:34:00;101701.19;;;16.00;100.00
76321;BME280;65132;52.088;5.402;2023-09-08T02:36:30;101695.91;;;15.98;100.00
76321;BME280;65132;52.088;5.402;2023-09-08T02:38:58;101694.47;;;15.94;100.00
76321;BME280;65132;52.088;5.402;2023-09-08T02:41:24;101695.81;;;15.90;100.00
76321;BME280;65132;52.088;5.402;2023-09-08T02:43:59;101693.56;;;15.86;100.00
76321;BME280;65132;52.088;5.402;2023-09-08T02:46:25;101701.03;;;15.84;100.00
76321;BME280;65132;52.088;5.402;2023-09-08T02:48:54;101698.16;;;15.85;100.00
76321;BME280;65132;52.088;5.402;2023-09-08T02:51:24;101702.56;;;15.78;100.00
76321;BME280;65132;52.088;5.402;2023-09-08T02:53:53;101701.47;;;15.71;100.00
76321;BME280;65132;52.088;5.402;2023-09-08T02:56:23;101708.00;;;15.61;100.00
76321;BME280;65132;52.088;5.402;2023-09-08T02:59:01;101700.41;;;15.54;100.00
76321;BME280;65132;52.088;5.402;2023-09-08T03:01:30;101712.13;;;15.47;100.00
76321;BME280;65132;52.088;5.402;2023-09-08T03:03:57;101701.53;;;15.44;100.00
76321;BME280;65132;52.088;5.402;2023-09-08T03:06:28;101709.72;;;15.44;100.00
76321;BME280;65132;52.088;5.402;2023-09-08T03:08:58;101706.34;;;15.50;100.00
76321;BME280;65132;52.088;5.402;2023-09-08T03:11:24;101705.19;;;15.52;100.00
76321;BME280;65132;52.088;5.402;2023-09-08T03:13:51;101705.75;;;15.56;100.00
76321;BME280;65132;52.088;5.402;2023-09-08T03:16:19;101697.25;;;15.59;100.00
76321;BME280;65132;52.088;5.402;2023-09-08T03:18:56;101705.03;;;15.54;100.00
76321;BME280;65132;52.088;5.402;2023-09-08T03:21:26;101703.41;;;15.61;100.00
76321;BME280;65132;52.088;5.402;2023-09-08T03:23:57;101702.69;;;15.59;100.00
76321;BME280;65132;52.088;5.402;2023-09-08T03:26:27;101699.88;;;15.51;100.00
76321;BME280;65132;52.088;5.402;2023-09-08T03:29:01;101698.66;;;15.45;100.00
76321;BME280;65132;52.088;5.402;2023-09-08T03:31:30;101697.63;;;15.46;100.00
76321;BME280;65132;52.088;5.402;2023-09-08T03:34:04;101689.59;;;15.45;100.00
76321;BME280;65132;52.088;5.402;2023-09-08T03:36:33;101688.03;;;15.42;100.00
76321;BME280;65132;52.088;5.402;2023-09-08T03:39:02;101689.19;;;15.40;100.00
76321;BME280;65132;52.088;5.402;2023-09-08T03:41:32;101696.81;;;15.36;100.00
76321;BME280;65132;52.088;5.402;2023-09-08T03:44:01;101689.03;;;15.41;100.00
76321;BME280;65132;52.088;5.402;2023-09-08T03:46:34;101688.56;;;15.46;100.00
76321;BME280;65132;52.088;5.402;2023-09-08T03:49:03;101686.59;;;15.38;100.00
76321;BME280;65132;52.088;5.402;2023-09-08T03:51:29;101690.78;;;15.42;100.00
76321;BME280;65132;52.088;5.402;2023-09-08T03:54:04;101689.09;;;15.32;100.00
76321;BME280;65132;52.088;5.402;2023-09-08T03:56:33;101680.19;;;15.30;100.00
76321;BME280;65132;52.088;5.402;2023-09-08T03:59:02;101683.25;;;15.27;100.00
76321;BME280;65132;52.088;5.402;2023-09-08T04:01:32;101678.22;;;15.22;100.00
76321;BME280;65132;52.088;5.402;2023-09-08T04:04:05;101681.59;;;15.16;100.00
76321;BME280;65132;52.088;5.402;2023-09-08T04:06:42;101677.13;;;15.15;100.00
76321;BME280;65132;52.088;5.402;2023-09-08T04:09:11;101673.56;;;15.15;100.00
76321;BME280;65132;52.088;5.402;2023-09-08T04:11:39;101672.84;;;15.13;100.00
76321;BME280;65132;52.088;5.402;2023-09-08T04:14:07;101677.59;;;15.11;100.00
76321;BME280;65132;52.088;5.402;2023-09-08T04:16:34;101681.03;;;15.13;100.00
76321;BME280;65132;52.088;5.402;2023-09-08T04:19:01;101675.81;;;15.19;100.00
76321;BME280;65132;52.088;5.402;2023-09-08T04:21:27;101680.97;;;15.22;100.00
76321;BME280;65132;52.088;5.402;2023-09-08T04:23:54;101681.66;;;15.24;100.00
76321;BME280;65132;52.088;5.402;2023-09-08T04:26:21;101675.81;;;15.19;100.00
76321;BME280;65132;52.088;5.402;2023-09-08T04:28:48;101677.84;;;15.17;100.00
76321;BME280;65132;52.088;5.402;2023-09-08T04:31:14;101684.63;;;15.13;100.00
76321;BME280;65132;52.088;5.402;2023-09-08T04:33:44;101673.84;;;15.12;100.00
76321;BME280;65132;52.088;5.402;2023-09-08T04:36:12;101681.63;;;15.07;100.00
76321;BME280;65132;52.088;5.402;2023-09-08T04:38:41;101674.31;;;15.07;100.00
76321;BME280;65132;52.088;5.402;2023-09-08T04:41:09;101679.16;;;15.13;100.00
76321;BME280;65132;52.088;5.402;2023-09-08T04:43:35;101678.47;;;15.11;100.00
76321;BME280;65132;52.088;5.402;2023-09-08T04:46:06;101677.19;;;15.06;100.00
76321;BME280;65132;52.088;5.402;2023-09-08T04:48:32;101679.44;;;15.10;100.00
76321;BME280;65132;52.088;5.402;2023-09-08T04:51:00;101681.38;;;15.00;100.00
76321;BME280;65132;52.088;5.402;2023-09-08T04:53:33;101674.69;;;14.95;100.00
76321;BME280;65132;52.088;5.402;2023-09-08T04:56:07;101679.28;;;14.94;100.00
76321;BME280;65132;52.088;5.402;2023-09-08T04:58:47;101678.41;;;14.94;100.00
76321;BME280;65132;52.088;5.402;2023-09-08T05:01:13;101678.09;;;14.97;100.00
76321;BME280;65132;52.088;5.402;2023-09-08T05:03:40;101686.75;;;14.92;100.00
76321;BME280;65132;52.088;5.402;2023-09-08T05:06:06;101684.41;;;14.97;100.00
76321;BME280;65132;52.088;5.402;2023-09-08T05:08:35;101688.72;;;15.00;100.00
76321;BME280;65132;52.088;5.402;2023-09-08T05:11:12;101682.72;;;14.96;100.00
76321;BME280;65132;52.088;5.402;2023-09-08T05:13:46;101679.22;;;15.04;100.00
76321;BME280;65132;52.088;5.402;2023-09-08T05:16:12;101687.69;;;15.01;100.00
76321;BME280;65132;52.088;5.402;2023-09-08T05:18:44;101678.06;;;15.06;100.00
76321;BME280;65132;52.088;5.402;2023-09-08T05:21:10;101679.06;;;15.05;100.00
76321;BME280;65132;52.088;5.402;2023-09-08T05:23:51;101680.63;;;15.08;100.00
76321;BME280;65132;52.088;5.402;2023-09-08T05:26:17;101678.06;;;15.06;100.00
76321;BME280;65132;52.088;5.402;2023-09-08T05:28:46;101682.66;;;15.06;100.00
76321;BME280;65132;52.088;5.402;2023-09-08T05:31:17;101685.22;;;15.07;100.00
76321;BME280;65132;52.088;5.402;2023-09-08T05:33:58;101685.22;;;15.07;100.00
76321;BME280;65132;52.088;5.402;2023-09-08T05:36:33;101683.59;;;15.14;100.00
76321;BME280;65132;52.088;5.402;2023-09-08T05:39:00;101700.03;;;15.22;100.00
76321;BME280;65132;52.088;5.402;2023-09-08T05:41:28;101692.88;;;15.21;100.00
76321;BME280;65132;52.088;5.402;2023-09-08T05:44:00;101690.56;;;15.26;100.00
76321;BME280;65132;52.088;5.402;2023-09-08T05:46:26;101692.97;;;15.29;100.00
76321;BME280;65132;52.088;5.402;2023-09-08T05:48:53;101700.56;;;15.35;100.00
76321;BME280;65132;52.088;5.402;2023-09-08T05:51:22;101693.91;;;15.47;100.00
76321;BME280;65132;52.088;5.402;2023-09-08T05:53:49;101695.28;;;15.51;100.00
76321;BME280;65132;52.088;5.402;2023-09-08T05:56:24;101703.69;;;15.58;100.00
76321;BME280;65132;52.088;5.402;2023-09-08T05:58:50;101707.59;;;15.55;100.00
76321;BME280;65132;52.088;5.402;2023-09-08T06:01:17;101707.84;;;15.62;100.00
76321;BME280;65132;52.088;5.402;2023-09-08T06:03:48;101706.22;;;15.69;100.00
76321;BME280;65132;52.088;5.402;2023-09-08T06:06:17;101716.59;;;15.83;100.00
76321;BME280;65132;52.088;5.402;2023-09-08T06:08:43;101710.38;;;15.99;100.00
76321;BME280;65132;52.088;5.402;2023-09-08T06:11:09;101712.72;;;16.11;100.00
76321;BME280;65132;52.088;5.402;2023-09-08T06:13:36;101710.19;;;16.18;100.00
76321;BME280;65132;52.088;5.402;2023-09-08T06:16:04;101713.38;;;16.31;100.00
76321;BME280;65132;52.088;5.402;2023-09-08T06:18:30;101712.78;;;16.45;100.00
76321;BME280;65132;52.088;5.402;2023-09-08T06:20:59;101709.50;;;16.59;100.00
76321;BME280;65132;52.088;5.402;2023-09-08T06:23:28;101713.31;;;16.74;100.00
76321;BME280;65132;52.088;5.402;2023-09-08T06:25:58;101707.09;;;16.90;100.00
76321;BME280;65132;52.088;5.402;2023-09-08T06:28:30;101707.47;;;17.03;100.00
76321;BME280;65132;52.088;5.402;2023-09-08T06:31:06;101706.69;;;17.18;100.00
76321;BME280;65132;52.088;5.402;2023-09-08T06:33:35;101711.53;;;17.40;100.00
76321;BME280;65132;52.088;5.402;2023-09-08T06:36:03;101715.34;;;17.55;100.00
76321;BME280;65132;52.088;5.402;2023-09-08T06:41:18;101717.13;;;17.88;100.00
76321;BME280;65132;52.088;5.402;2023-09-08T06:43:47;101715.25;;;18.05;100.00
76321;BME280;65132;52.088;5.402;2023-09-08T06:46:15;101711.97;;;18.26;100.00
76321;BME280;65132;52.088;5.402;2023-09-08T06:48:44;101713.69;;;18.51;100.00
76321;BME280;65132;52.088;5.402;2023-09-08T06:51:14;101723.41;;;18.77;100.00
76321;BME280;65132;52.088;5.402;2023-09-08T06:53:43;101707.88;;;19.00;100.00
76321;BME280;65132;52.088;5.402;2023-09-08T06:56:09;101710.34;;;19.26;100.00
76321;BME280;65132;52.088;5.402;2023-09-08T06:58:49;101718.06;;;19.61;100.00
76321;BME280;65132;52.088;5.402;2023-09-08T07:01:16;101727.97;;;19.93;100.00
76321;BME280;65132;52.088;5.402;2023-09-08T07:03:44;101722.91;;;20.27;100.00
76321;BME280;65132;52.088;5.402;2023-09-08T07:06:14;101720.75;;;20.52;100.00
76321;BME280;65132;52.088;5.402;2023-09-08T07:08:40;101722.91;;;20.79;100.00
76321;BME280;65132;52.088;5.402;2023-09-08T07:11:09;101728.69;;;21.13;100.00
76321;BME280;65132;52.088;5.402;2023-09-08T07:13:36;101736.44;;;21.38;100.00
76321;BME280;65132;52.088;5.402;2023-09-08T07:16:02;101734.66;;;21.67;100.00
76321;BME280;65132;52.088;5.402;2023-09-08T07:18:31;101734.47;;;21.68;100.00
76321;BME280;65132;52.088;5.402;2023-09-08T07:20:59;101736.09;;;21.77;100.00
76321;BME280;65132;52.088;5.402;2023-09-08T07:23:34;101737.63;;;22.01;100.00
76321;BME280;65132;52.088;5.402;2023-09-08T07:26:00;101733.00;;;21.87;100.00
76321;BME280;65132;52.088;5.402;2023-09-08T07:28:29;101728.59;;;22.13;100.00
76321;BME280;65132;52.088;5.402;2023-09-08T07:31:04;101730.31;;;22.14;97.46
76321;BME280;65132;52.088;5.402;2023-09-08T07:33:31;101730.59;;;22.19;98.54
76321;BME280;65132;52.088;5.402;2023-09-08T07:36:03;101741.75;;;22.11;100.00
76321;BME280;65132;52.088;5.402;2023-09-08T07:38:34;101742.69;;;22.18;100.00
76321;BME280;65132;52.088;5.402;2023-09-08T07:41:01;101736.97;;;22.69;96.86
76321;BME280;65132;52.088;5.402;2023-09-08T07:43:29;101733.41;;;22.75;97.00
76321;BME280;65132;52.088;5.402;2023-09-08T07:45:59;101735.84;;;22.91;95.89
76321;BME280;65132;52.088;5.402;2023-09-08T07:48:25;101737.72;;;23.24;93.63
76321;BME280;65132;52.088;5.402;2023-09-08T07:50:54;101737.06;;;23.22;91.75
76321;BME280;65132;52.088;5.402;2023-09-08T07:53:22;101738.06;;;23.42;92.01
76321;BME280;65132;52.088;5.402;2023-09-08T07:55:56;101735.59;;;23.73;89.86
76321;BME280;65132;52.088;5.402;2023-09-08T07:58:22;101736.72;;;23.32;88.73
76321;BME280;65132;52.088;5.402;2023-09-08T08:00:55;101735.56;;;23.13;90.35
76321;BME280;65132;52.088;5.402;2023-09-08T08:03:22;101740.44;;;23.52;88.45
76321;BME280;65132;52.088;5.402;2023-09-08T08:05:56;101743.72;;;23.88;87.23
76321;BME280;65132;52.088;5.402;2023-09-08T08:08:23;101746.16;;;24.17;85.49
76321;BME280;65132;52.088;5.402;2023-09-08T08:10:49;101728.28;;;24.20;82.67
76321;BME280;65132;52.088;5.402;2023-09-08T08:13:16;101740.63;;;24.24;84.79
76321;BME280;65132;52.088;5.402;2023-09-08T08:15:43;101733.41;;;24.29;85.56
76321;BME280;65132;52.088;5.402;2023-09-08T08:18:10;101737.84;;;24.30;85.51
76321;BME280;65132;52.088;5.402;2023-09-08T08:20:39;101731.47;;;24.62;83.41
76321;BME280;65132;52.088;5.402;2023-09-08T08:23:06;101727.00;;;24.61;84.54
76321;BME280;65132;52.088;5.402;2023-09-08T08:25:37;101737.81;;;25.09;81.60
76321;BME280;65132;52.088;5.402;2023-09-08T08:28:13;101738.47;;;25.04;81.54
76321;BME280;65132;52.088;5.402;2023-09-08T08:30:39;101735.50;;;24.86;82.16
76321;BME280;65132;52.088;5.402;2023-09-08T08:33:08;101726.56;;;24.91;82.85
76321;BME280;65132;52.088;5.402;2023-09-08T08:35:41;101719.66;;;25.19;83.78
76321;BME280;65132;52.088;5.402;2023-09-08T08:38:07;101725.19;;;25.26;81.45
76321;BME280;65132;52.088;5.402;2023-09-08T08:40:38;101726.63;;;25.35;81.66
76321;BME280;65132;52.088;5.402;2023-09-08T08:43:13;101734.53;;;25.82;78.96
76321;BME280;65132;52.088;5.402;2023-09-08T08:45:41;101731.53;;;25.39;80.13
76321;BME280;65132;52.088;5.402;2023-09-08T08:48:15;101734.09;;;25.34;81.16
76321;BME280;65132;52.088;5.402;2023-09-08T08:50:47;101732.19;;;25.35;80.89
76321;BME280;65132;52.088;5.402;2023-09-08T08:53:15;101722.81;;;25.29;85.05
76321;BME280;65132;52.088;5.402;2023-09-08T08:55:57;101733.03;;;25.86;80.10
76321;BME280;65132;52.088;5.402;2023-09-08T08:58:29;101735.13;;;25.90;78.53
76321;BME280;65132;52.088;5.402;2023-09-08T09:00:59;101730.28;;;26.42;75.89
76321;BME280;65132;52.088;5.402;2023-09-08T09:03:26;101735.31;;;26.51;76.71
76321;BME280;65132;52.088;5.402;2023-09-08T09:05:56;101737.03;;;26.28;76.62
76321;BME280;65132;52.088;5.402;2023-09-08T09:08:31;101725.94;;;26.52;77.17
76321;BME280;65132;52.088;5.402;2023-09-08T09:11:03;101726.09;;;26.57;77.29
76321;BME280;65132;52.088;5.402;2023-09-08T09:13:35;101723.25;;;26.64;76.04
76321;BME280;65132;52.088;5.402;2023-09-08T09:16:02;101729.69;;;27.07;73.63
76321;BME280;65132;52.088;5.402;2023-09-08T09:18:30;101728.69;;;27.56;74.08
76321;BME280;65132;52.088;5.402;2023-09-08T09:21:00;101729.25;;;27.94;70.73
76321;BME280;65132;52.088;5.402;2023-09-08T09:23:34;101732.94;;;27.88;71.82
76321;BME280;65132;52.088;5.402;2023-09-08T09:26:09;101731.88;;;28.30;67.96
76321;BME280;65132;52.088;5.402;2023-09-08T09:28:47;101725.53;;;28.11;68.90
76321;BME280;65132;52.088;5.402;2023-09-08T09:31:18;101727.00;;;28.67;67.88
76321;BME280;65132;52.088;5.402;2023-09-08T09:34:01;101726.38;;;28.12;66.28
76321;BME280;65132;52.088;5.402;2023-09-08T09:36:27;101726.38;;;28.12;66.64
76321;BME280;65132;52.088;5.402;2023-09-08T09:39:07;101732.59;;;28.25;66.93
76321;BME280;65132;52.088;5.402;2023-09-08T09:41:36;101731.66;;;28.43;68.73
76321;BME280;65132;52.088;5.402;2023-09-08T09:44:06;101724.09;;;28.73;64.84
76321;BME280;65132;52.088;5.402;2023-09-08T09:46:33;101723.72;;;29.04;64.46
76321;BME280;65132;52.088;5.402;2023-09-08T09:49:05;101734.03;;;28.92;65.78
76321;BME280;65132;52.088;5.402;2023-09-08T09:51:40;101724.09;;;28.73;64.47
76321;BME280;65132;52.088;5.402;2023-09-08T09:54:06;101729.53;;;28.80;63.46
76321;BME280;65132;52.088;5.402;2023-09-08T09:56:34;101734.72;;;29.34;63.21
76321;BME280;65132;52.088;5.402;2023-09-08T09:59:05;101733.66;;;29.00;62.87
76321;BME280;65132;52.088;5.402;2023-09-08T10:01:33;101735.81;;;29.33;62.30
76321;BME280;65132;52.088;5.402;2023-09-08T10:04:02;101733.75;;;29.05;63.64
76321;BME280;65132;52.088;5.402;2023-09-08T10:06:34;101724.75;;;29.38;64.06
76321;BME280;65132;52.088;5.402;2023-09-08T10:09:06;101727.94;;;29.30;63.21
76321;BME280;65132;52.088;5.402;2023-09-08T10:11:42;101726.44;;;29.51;60.84
76321;BME280;65132;52.088;5.402;2023-09-08T10:14:22;101723.25;;;29.98;59.48
76321;BME280;65132;52.088;5.402;2023-09-08T10:16:56;101718.19;;;30.12;59.75
76321;BME280;65132;52.088;5.402;2023-09-08T10:19:32;101721.88;;;30.01;60.16
76321;BME280;65132;52.088;5.402;2023-09-08T10:22:02;101724.88;;;29.83;59.45
76321;BME280;65132;52.088;5.402;2023-09-08T10:24:35;101720.34;;;30.38;59.63
76321;BME280;65132;52.088;5.402;2023-09-08T10:27:08;101723.91;;;30.33;58.74
76321;BME280;65132;52.088;5.402;2023-09-08T10:29:37;101712.50;;;29.79;60.11
76321;BME280;65132;52.088;5.402;2023-09-08T10:32:06;101715.84;;;30.37;58.80
76321;BME280;65132;52.088;5.402;2023-09-08T10:34:35;101713.81;;;31.20;57.90
76321;BME280;65132;52.088;5.402;2023-09-08T10:39:46;101716.56;;;31.15;55.36
76321;BME280;65132;52.088;5.402;2023-09-08T10:47:39;101702.72;;;31.47;55.71
76321;BME280;65132;52.088;5.402;2023-09-08T10:50:17;101705.84;;;31.50;56.21
76321;BME280;65132;52.088;5.402;2023-09-08T10:52:45;101700.56;;;31.81;55.64
76321;BME280;65132;52.088;5.402;2023-09-08T10:55:42;101705.13;;;31.38;55.11
76321;BME280;65132;52.088;5.402;2023-09-08T10:58:10;101709.66;;;31.88;53.16
76321;BME280;65132;52.088;5.402;2023-09-08T11:00:44;101710.38;;;31.13;54.86
76321;BME280;65132;52.088;5.402;2023-09-08T11:03:11;101703.97;;;31.34;54.91
76321;BME280;65132;52.088;5.402;2023-09-08T11:05:38;101709.94;;;32.13;54.74
76321;BME280;65132;52.088;5.402;2023-09-08T11:08:09;101709.31;;;31.19;56.29
76321;BME280;65132;52.088;5.402;2023-09-08T11:10:35;101706.91;;;31.44;55.39
76321;BME280;65132;52.088;5.402;2023-09-08T11:13:02;101706.75;;;32.04;55.03
76321;BME280;65132;52.088;5.402;2023-09-08T11:15:28;101702.09;;;32.41;51.57
76321;BME280;65132;52.088;5.402;2023-09-08T11:17:55;101709.03;;;32.70;52.53
76321;BME280;65132;52.088;5.402;2023-09-08T11:20:27;101708.72;;;33.50;53.15
76321;BME280;65132;52.088;5.402;2023-09-08T11:22:56;101706.06;;;34.16;49.84
76321;BME280;65132;52.088;5.402;2023-09-08T11:25:26;101710.75;;;33.80;49.02
76321;BME280;65132;52.088;5.402;2023-09-08T11:27:54;101711.59;;;33.80;49.69
76321;BME280;65132;52.088;5.402;2023-09-08T11:30:28;101702.59;;;33.73;51.74
76321;BME280;65132;52.088;5.402;2023-09-08T11:32:55;101708.66;;;34.52;47.78
76321;BME280;65132;52.088;5.402;2023-09-08T11:35:26;101703.00;;;34.17;48.65
76321;BME280;65132;52.088;5.402;2023-09-08T11:37:58;101704.09;;;34.01;47.87
76321;BME280;65132;52.088;5.402;2023-09-08T11:40:25;101708.28;;;33.99;48.49
76321;BME280;65132;52.088;5.402;2023-09-08T11:42:55;101701.28;;;34.11;47.92
76321;BME280;65132;52.088;5.402;2023-09-08T11:45:21;101709.81;;;33.49;48.46
76321;BME280;65132;52.088;5.402;2023-09-08T11:47:52;101713.97;;;34.24;47.09
76321;BME280;65132;52.088;5.402;2023-09-08T11:50:21;101702.19;;;34.47;46.94
76321;BME280;65132;52.088;5.402;2023-09-08T11:52:50;101704.41;;;34.35;47.82
76321;BME280;65132;52.088;5.402;2023-09-08T11:55:20;101697.91;;;34.89;46.63
76321;BME280;65132;52.088;5.402;2023-09-08T11:57:53;101701.28;;;34.21;45.22
76321;BME280;65132;52.088;5.402;2023-09-08T12:00:24;101693.44;;;34.23;46.64
76321;BME280;65132;52.088;5.402;2023-09-08T12:02:52;101691.47;;;34.74;48.67
76321;BME280;65132;52.088;5.402;2023-09-08T12:05:26;101689.75;;;34.08;46.40
76321;BME280;65132;52.088;5.402;2023-09-08T12:07:57;101690.63;;;34.63;45.47
76321;BME280;65132;52.088;5.402;2023-09-08T12:10:25;101687.22;;;34.96;45.38
76321;BME280;65132;52.088;5.402;2023-09-08T12:12:55;101693.03;;;35.25;46.37
76321;BME280;65132;52.088;5.402;2023-09-08T12:15:34;101686.41;;;34.76;44.68
76321;BME280;65132;52.088;5.402;2023-09-08T12:18:06;101685.59;;;35.59;43.48
76321;BME280;65132;52.088;5.402;2023-09-08T12:20:34;101691.59;;;35.43;43.88
76321;BME280;65132;52.088;5.402;2023-09-08T12:23:03;101688.59;;;34.89;45.91
76321;BME280;65132;52.088;5.402;2023-09-08T12:25:53;101692.00;;;34.81;46.23
76321;BME280;65132;52.088;5.402;2023-09-08T12:28:20;101689.16;;;35.01;44.79
76321;BME280;65132;52.088;5.402;2023-09-08T12:30:49;101690.03;;;35.02;46.18
76321;BME280;65132;52.088;5.402;2023-09-08T12:33:17;101682.88;;;35.34;46.53
76321;BME280;65132;52.088;5.402;2023-09-08T12:35:44;101679.75;;;35.46;43.55
76321;BME280;65132;52.088;5.402;2023-09-08T12:38:12;101685.78;;;35.09;43.92
76321;BME280;65132;52.088;5.402;2023-09-08T12:40:40;101680.47;;;34.77;44.46
76321;BME280;65132;52.088;5.402;2023-09-08T12:43:07;101678.97;;;35.20;44.04
76321;BME280;65132;52.088;5.402;2023-09-08T12:45:54;101684.22;;;35.47;43.53
76321;BME280;65132;52.088;5.402;2023-09-08T12:48:21;101681.81;;;35.15;44.59
76321;BME280;65132;52.088;5.402;2023-09-08T12:50:54;101679.34;;;34.68;45.59
76321;BME280;65132;52.088;5.402;2023-09-08T12:53:24;101684.63;;;35.15;44.85
76321;BME280;65132;52.088;5.402;2023-09-08T12:55:50;101679.03;;;35.69;42.33
76321;BME280;65132;52.088;5.402;2023-09-08T12:58:19;101676.78;;;35.71;43.19
76321;BME280;65132;52.088;5.402;2023-09-08T13:00:49;101676.66;;;36.30;42.75
76321;BME280;65132;52.088;5.402;2023-09-08T13:03:15;101668.41;;;35.56;43.42
76321;BME280;65132;52.088;5.402;2023-09-08T13:05:44;101662.72;;;35.66;42.65
76321;BME280;65132;52.088;5.402;2023-09-08T13:08:18;101668.59;;;35.16;44.07
76321;BME280;65132;52.088;5.402;2023-09-08T13:10:45;101665.41;;;35.42;45.19
76321;BME280;65132;52.088;5.402;2023-09-08T13:13:12;101667.50;;;35.02;44.79
76321;BME280;65132;52.088;5.402;2023-09-08T13:15:38;101669.88;;;35.48;42.68